Vliegveldwaarnemingen Nederland - (AUTO) METAR

Luchtvaartmeteorologische informatie voor operationeel gebruik en vluchtvoorbereiding is beschikbaar op www.luchtvaartmeteo.nl.

ZCZC
SA211155 EHFS     VLISSINGEN AWS   NLD   8 m.
METAR EHFS 211155Z AUTO 05011KT 8000 NCD 03/M02 Q1026 W///H///=

ZCZC
SA211225 EHKD     DE KOOY/DE KOOY   NLD   1 m.
METAR EHKD 211225Z AUTO 06007KT 030V090 9000 HZ NCD 03/M01 Q1027
BLU 07006KT 8000 NSC=

ZCZC
SA211225 EHFD     F3-FB-1   NLD   50 m.
METAR EHFD 211225Z AUTO 10004KT 9999 NSC 04/M00 Q1028 W///H///=

ZCZC
SA211225 EHAM     AMSTERDAM/SCHIPHOL   NLD   -3 m.
METAR EHAM 211225Z 07008KT 040V100 8000 NSC 05/M01 Q1026 NOSIG=

ZCZC
SA211225 EHVL     VLIELAND   NLD   10 m.
METAR EHVL 211225Z AUTO 11005KT 9999 BKN022 04/M01 Q1027 WHT=

ZCZC
SA211225 EHJR     K13-A   NLD   37 m.
METAR EHJR 211225Z AUTO 15003KT //// // ///////// 05/00 Q1027 RE//
W06/H9=

ZCZC
SA211225 EHLW     LEEUWARDEN/LEEUWARDEN   NLD   1 m.
METAR EHLW 211225Z AUTO 04006KT 360V060 9999 OVC024 03/M02 Q1027
WHT 04006KT 9999 BKN024=

ZCZC
SA211225 EHDL     ARNHEM/DEELEN   NLD   48 m.
METAR EHDL 211225Z AUTO VRB05KT 9999 NCD 04/M03 Q1026 BLU=

ZCZC
SA211225 EHGG     GRONINGEN/EELDE   NLD   5 m.
METAR EHGG 211225Z AUTO 05008KT 9999 NSC 04/M03 Q1027 NOSIG=

ZCZC
SA211225 EHSC     LICHTEILAND GOEREE   NLD   22 m.
METAR EHSC 211225Z AUTO 05008KT 8000 ///////// 03/M03 Q1026 W06/H6=

ZCZC
SA211225 EHSA     EURO PLATFORM   NLD   19 m.
METAR EHSA 211225Z AUTO 05008KT 8000 ///////// 04/M02 Q1027 W06/H7=

ZCZC
SA211225 EHWO     WOENSDRECHT/WOENSDRECHT   NLD   19 m.
METAR EHWO 211225Z AUTO 04010KT 350V080 9999 NCD 04/M03 Q1026
BLU 05010KT 9999 NSC=

ZCZC
SA211225 EHRD     ROTTERDAM/THE HAGUE AIRPORT   NLD   -5 m.
METAR EHRD 211225Z AUTO 04007KT 010V070 8000 NCD 05/M01 Q1026 NOSIG=

ZCZC
SA211225 EHGR     GILZE-RIJEN/GILZE-RIJEN   NLD   14 m.
METAR EHGR 211225Z AUTO 02011KT 340V080 9000 HZ NCD 04/M03 Q1026
BLU 02008KT 8000 HZ FEW025=

ZCZC
SA211225 EHEH     EINDHOVEN/EINDHOVEN   NLD   22 m.
METAR EHEH 211225Z AUTO 03010KT 350V060 9999 NCD 05/M03 Q1025
BLU 04008KT CAVOK=

ZCZC
SA211225 EHVK     VOLKEL/VOLKEL   NLD   21 m.
METAR EHVK 211225Z AUTO 04007KT 350V070 9999 NCD 04/M03 Q1025
BLU 04007KT CAVOK=

ZCZC
SA211225 EHBK     MAASTRICHT/MAASTRICHT-AACHEN   NLD   114 m.
METAR EHBK 211225Z AUTO 05012KT 020V080 9999 NCD 04/M03 Q1024 NOSIG=

ZCZC
SA211225 EHFZ     F16-A   NLD   43 m.
METAR EHFZ 211225Z AUTO VRB02KT 9999 FEW046 04/M00 Q1027 W///H///=

ZCZC
SA211225 EHKV     K14-FA-1C   NLD   41 m.
METAR EHKV 211225Z AUTO 11006KT 9000 BKN017 BKN020 OVC026 04/01 Q1027
W///H///=

ZCZC
SA211225 EHMG     L9-FF-1   NLD   44 m.
METAR EHMG 211225Z AUTO 08005KT 9999 BKN020 BKN023 06/01 Q1027
W///H///=

ZCZC
SA211225 EHMA     AWG-1   NLD   40 m.
METAR EHMA 211225Z AUTO 05006KT 350V160 9999 FEW022 SCT026 03/M02
Q1027 W///H///=

ZCZC
SA211225 EHDV     D15-FA-1   NLD   42 m.
METAR EHDV 211225Z AUTO 09003KT 9999 BKN008/// BKN009/// 05/03 Q1027
W///H///=

ZCZC
SA211225 EHAK     A12-CPP   NLD   48 m.
METAR EHAK 211225Z AUTO VRB03KT 9999 NSC 05/00 Q1027 W///H///=

ZCZC
SA211225 EHQE     HOORN-A   NLD   50 m.
METAR EHQE 211225Z AUTO 05006KT 9000 NSC 03/M02 Q1027 W///H///=

ZCZC
SA211225 EHJA     J6-A   NLD   45 m.
METAR EHJA 211225Z AUTO 03004KT 9999 FEW029/// 05/02 Q1027 W///H///=

ZCZC
SA211225 EHPG     P11-B   NLD   41 m.
METAR EHPG 211225Z AUTO 04007KT 9999 NSC 04/M02 Q1027 W///H///=

ZCZC
SA211225 EHHW     BUITENGAATS/BG-OHVS2      42 m.
METAR EHHW 211225Z AUTO VRB06KT 9999 ///////// 03/M03 Q1027 W///H///=

21/02/2018 13.30 uur LT